createdAt,value
2022-09-16T00:00:48.250Z,14.81
2022-09-16T00:03:16.875Z,14.80
2022-09-16T00:05:51.884Z,14.82
2022-09-16T00:08:19.666Z,14.83
2022-09-16T00:10:46.145Z,14.82
2022-09-16T00:13:14.085Z,14.92
2022-09-16T00:15:45.121Z,14.94
2022-09-16T00:18:12.176Z,14.90
2022-09-16T00:20:44.498Z,15.04
2022-09-16T00:23:10.946Z,15.00
2022-09-16T00:25:37.372Z,14.81
2022-09-16T00:28:03.910Z,14.88
2022-09-16T00:30:30.324Z,14.79
2022-09-16T00:32:56.771Z,14.87
2022-09-16T00:35:23.384Z,14.81
2022-09-16T00:37:50.323Z,14.65
2022-09-16T00:40:16.839Z,14.58
2022-09-16T00:42:43.294Z,14.57
2022-09-16T00:45:19.920Z,14.65
2022-09-16T00:47:57.381Z,14.73
2022-09-16T00:50:40.943Z,14.83
2022-09-16T00:53:12.927Z,14.78
2022-09-16T00:55:39.656Z,14.81
2022-09-16T00:58:29.233Z,14.84
2022-09-16T01:00:55.692Z,14.89
2022-09-16T01:03:23.578Z,14.85
2022-09-16T01:05:50.365Z,14.83
2022-09-16T01:08:16.811Z,14.72
2022-09-16T01:10:43.537Z,14.65
2022-09-16T01:13:14.475Z,14.60
2022-09-16T01:16:14.809Z,14.40
2022-09-16T01:18:53.481Z,14.44
2022-09-16T01:21:40.921Z,14.59
2022-09-16T01:24:19.349Z,14.55
2022-09-16T01:26:55.318Z,14.41
2022-09-16T01:29:33.907Z,14.38
2022-09-16T01:32:16.938Z,14.49
2022-09-16T01:34:53.444Z,14.50
2022-09-16T01:37:33.995Z,14.38
2022-09-16T01:40:20.086Z,14.65
2022-09-16T01:43:09.018Z,14.46
2022-09-16T01:45:46.740Z,14.30
2022-09-16T01:48:27.595Z,14.42
2022-09-16T01:51:05.307Z,14.33
2022-09-16T01:53:36.332Z,14.36
2022-09-16T01:56:33.526Z,14.38
2022-09-16T01:59:09.465Z,14.49
2022-09-16T02:02:00.450Z,14.55
2022-09-16T02:04:44.238Z,14.44
2022-09-16T02:07:13.036Z,14.38
2022-09-16T02:09:46.064Z,14.42
2022-09-16T02:12:21.025Z,14.43
2022-09-16T02:14:50.725Z,14.32
2022-09-16T02:17:22.253Z,14.39
2022-09-16T02:20:02.904Z,14.29
2022-09-16T02:22:39.419Z,14.26
2022-09-16T02:25:08.405Z,14.27
2022-09-16T02:27:38.194Z,14.28
2022-09-16T02:30:11.180Z,14.21
2022-09-16T02:32:42.050Z,14.24
2022-09-16T02:35:12.284Z,14.24
2022-09-16T02:37:53.168Z,14.27
2022-09-16T02:40:44.614Z,14.31
2022-09-16T02:43:11.176Z,14.30
2022-09-16T02:45:52.732Z,14.52
2022-09-16T02:48:30.067Z,14.42
2022-09-16T02:51:11.765Z,14.43
2022-09-16T02:53:41.241Z,14.40
2022-09-16T02:56:32.410Z,14.47
2022-09-16T02:59:00.780Z,14.55
2022-09-16T03:01:30.703Z,14.37
2022-09-16T03:03:57.220Z,14.39
2022-09-16T03:06:25.601Z,14.21
2022-09-16T03:08:55.371Z,14.24
2022-09-16T03:11:34.944Z,14.36
2022-09-16T03:14:07.842Z,14.37
2022-09-16T03:16:46.076Z,14.40
2022-09-16T03:19:32.957Z,14.30
2022-09-16T03:22:25.303Z,14.35
2022-09-16T03:25:07.910Z,14.35
2022-09-16T03:27:41.298Z,14.47
2022-09-16T03:30:10.280Z,14.54
2022-09-16T03:32:54.079Z,14.41
2022-09-16T03:35:45.759Z,14.33
2022-09-16T03:38:13.736Z,14.39
2022-09-16T03:40:42.274Z,14.33
2022-09-16T03:43:13.300Z,14.23
2022-09-16T03:45:42.802Z,14.18
2022-09-16T03:48:10.657Z,14.28
2022-09-16T03:50:37.110Z,14.14
2022-09-16T03:53:03.908Z,14.04
2022-09-16T03:55:30.523Z,13.94
2022-09-16T03:57:56.923Z,14.21
2022-09-16T04:00:23.376Z,14.18
2022-09-16T04:02:49.857Z,14.15
2022-09-16T04:05:16.867Z,14.17
2022-09-16T04:07:43.371Z,14.23
2022-09-16T04:10:12.234Z,14.15
2022-09-16T04:12:38.720Z,14.23
2022-09-16T04:15:05.660Z,14.21
2022-09-16T04:17:32.919Z,14.15
2022-09-16T04:19:59.689Z,14.19
2022-09-16T04:22:29.740Z,14.16
2022-09-16T04:24:56.862Z,14.21
2022-09-16T04:27:24.536Z,14.14
2022-09-16T04:29:50.949Z,14.17
2022-09-16T04:32:17.390Z,14.17
2022-09-16T04:34:43.962Z,14.09
2022-09-16T04:37:10.366Z,14.11
2022-09-16T04:39:36.773Z,14.00
2022-09-16T04:42:05.463Z,14.14
2022-09-16T04:44:31.874Z,14.20
2022-09-16T04:46:58.279Z,14.23
2022-09-16T04:49:25.226Z,14.07
2022-09-16T04:51:52.147Z,14.02
2022-09-16T04:54:18.660Z,14.03
2022-09-16T04:56:45.057Z,14.01
2022-09-16T04:59:11.517Z,14.02
2022-09-16T05:01:39.347Z,14.07
2022-09-16T05:04:07.589Z,14.07
2022-09-16T05:06:36.823Z,14.08
2022-09-16T05:09:03.817Z,13.96
2022-09-16T05:11:33.766Z,13.77
2022-09-16T05:14:01.780Z,13.94
2022-09-16T05:16:29.232Z,14.02
2022-09-16T05:18:57.696Z,13.83
2022-09-16T05:21:26.684Z,13.86
2022-09-16T05:23:53.487Z,13.89
2022-09-16T05:26:26.587Z,13.82
2022-09-16T05:28:53.651Z,13.77
2022-09-16T05:31:26.615Z,13.90
2022-09-16T05:34:11.008Z,13.80
2022-09-16T05:36:40.129Z,13.84
2022-09-16T05:39:24.499Z,13.95
2022-09-16T05:41:59.669Z,13.98
2022-09-16T05:44:27.420Z,13.67
2022-09-16T05:46:54.746Z,13.81
2022-09-16T05:49:21.554Z,13.74
2022-09-16T05:51:48.447Z,13.86
2022-09-16T05:54:15.360Z,13.81
2022-09-16T05:56:42.980Z,13.78
2022-09-16T05:59:11.502Z,13.77
2022-09-16T06:01:38.593Z,13.83
2022-09-16T06:04:07.116Z,13.79
2022-09-16T06:06:36.152Z,13.81
2022-09-16T06:09:08.767Z,13.87
2022-09-16T06:11:43.945Z,13.93
2022-09-16T06:14:11.129Z,13.92
2022-09-16T06:16:37.649Z,14.01
2022-09-16T06:19:10.472Z,14.04
2022-09-16T06:21:38.144Z,14.12
2022-09-16T06:24:08.772Z,14.10
2022-09-16T06:26:37.284Z,14.09
2022-09-16T06:29:05.637Z,13.84
2022-09-16T06:31:32.926Z,14.05
2022-09-16T06:33:59.542Z,13.95
2022-09-16T06:36:28.789Z,14.21
2022-09-16T06:38:55.593Z,14.22
2022-09-16T06:41:23.030Z,13.99
2022-09-16T06:43:53.686Z,13.89
2022-09-16T06:46:23.110Z,14.01
2022-09-16T06:48:52.344Z,14.09
2022-09-16T06:51:22.755Z,13.88
2022-09-16T06:53:50.537Z,14.08
2022-09-16T06:56:19.176Z,13.98
2022-09-16T06:58:51.972Z,14.06
2022-09-16T07:01:24.480Z,14.30
2022-09-16T07:03:52.408Z,14.20
2022-09-16T07:06:20.768Z,14.36
2022-09-16T07:08:47.509Z,14.14
2022-09-16T07:11:16.688Z,14.20
2022-09-16T07:13:44.212Z,14.18
2022-09-16T07:16:16.438Z,14.25
2022-09-16T07:18:43.691Z,14.45
2022-09-16T07:21:14.434Z,14.57
2022-09-16T07:23:41.937Z,14.62
2022-09-16T07:26:20.665Z,14.82
2022-09-16T07:28:49.617Z,14.60
2022-09-16T07:31:19.300Z,14.75
2022-09-16T07:33:48.615Z,14.65
2022-09-16T07:36:18.734Z,14.61
2022-09-16T07:38:45.288Z,14.67
2022-09-16T07:41:14.590Z,14.60
2022-09-16T07:43:42.925Z,14.57
2022-09-16T07:46:11.710Z,14.57
2022-09-16T07:48:39.193Z,14.71
2022-09-16T07:51:10.973Z,14.66
2022-09-16T07:53:38.539Z,14.62
2022-09-16T07:56:07.441Z,14.72
2022-09-16T07:58:34.259Z,14.80
2022-09-16T08:01:04.509Z,14.88
2022-09-16T08:03:35.873Z,15.00
2022-09-16T08:06:05.826Z,14.99
2022-09-16T08:08:33.046Z,15.01
2022-09-16T08:11:00.739Z,14.76
2022-09-16T08:13:29.252Z,15.01
2022-09-16T08:15:59.970Z,15.26
2022-09-16T08:18:26.376Z,15.18
2022-09-16T08:20:52.795Z,14.99
2022-09-16T08:23:19.288Z,15.15
2022-09-16T08:25:47.002Z,15.10
2022-09-16T08:28:15.352Z,15.23
2022-09-16T08:30:42.789Z,15.36
2022-09-16T08:33:09.713Z,15.38
2022-09-16T08:35:36.415Z,15.43
2022-09-16T08:38:02.922Z,15.59
2022-09-16T08:40:36.373Z,15.63
2022-09-16T08:43:33.634Z,15.53
2022-09-16T08:46:10.147Z,15.82
2022-09-16T08:49:09.271Z,15.82
2022-09-16T08:51:35.906Z,15.91
2022-09-16T08:54:11.606Z,16.09
2022-09-16T08:56:40.375Z,16.19
2022-09-16T08:59:23.158Z,15.90
2022-09-16T09:02:09.471Z,15.93
2022-09-16T09:04:36.375Z,16.04
2022-09-16T09:07:24.174Z,16.07
2022-09-16T09:10:00.823Z,16.02
2022-09-16T09:12:41.515Z,16.13
2022-09-16T09:15:11.936Z,16.03
2022-09-16T09:17:48.814Z,15.90
2022-09-16T09:20:24.078Z,16.15
2022-09-16T09:23:40.433Z,15.96
2022-09-16T09:26:13.715Z,15.94
2022-09-16T09:28:40.196Z,16.38
2022-09-16T09:31:27.030Z,16.51
2022-09-16T09:34:00.002Z,16.63
2022-09-16T09:36:53.721Z,16.98
2022-09-16T09:39:35.023Z,17.18
2022-09-16T09:42:24.680Z,17.02
2022-09-16T09:45:04.554Z,16.75
2022-09-16T09:47:41.508Z,16.62
2022-09-16T09:50:36.650Z,16.72
2022-09-16T09:53:29.193Z,17.01
2022-09-16T09:56:20.223Z,17.19
2022-09-16T09:59:03.043Z,17.21
2022-09-16T10:01:29.572Z,17.21
2022-09-16T10:03:57.825Z,17.07
2022-09-16T10:06:34.620Z,17.00
2022-09-16T10:09:01.189Z,16.91
2022-09-16T10:11:33.684Z,17.18
2022-09-16T10:14:02.104Z,17.52
2022-09-16T10:16:37.150Z,17.84
2022-09-16T10:19:08.864Z,17.94
2022-09-16T10:21:48.462Z,18.27
2022-09-16T10:24:30.127Z,17.94
2022-09-16T10:26:58.026Z,17.67
2022-09-16T10:29:24.741Z,17.66
2022-09-16T10:31:51.778Z,17.67
2022-09-16T10:34:31.169Z,17.73
2022-09-16T10:37:06.066Z,17.64
2022-09-16T10:39:33.087Z,17.58
2022-09-16T10:42:00.448Z,17.72
2022-09-16T10:44:32.920Z,18.07
2022-09-16T10:47:09.283Z,18.10
2022-09-16T10:49:49.203Z,18.12
2022-09-16T10:52:23.464Z,17.91
2022-09-16T10:54:50.165Z,17.99
2022-09-16T10:57:36.276Z,17.92
2022-09-16T11:00:23.813Z,17.94
2022-09-16T11:03:19.612Z,17.98
2022-09-16T11:06:23.719Z,17.69
2022-09-16T11:09:10.604Z,17.98
2022-09-16T11:12:06.392Z,18.03
2022-09-16T11:14:52.092Z,18.31
2022-09-16T11:17:43.176Z,18.75
2022-09-16T11:20:24.725Z,18.86
2022-09-16T11:23:14.957Z,19.10
2022-09-16T11:25:41.419Z,19.33
2022-09-16T11:28:19.489Z,19.46
2022-09-16T11:30:55.391Z,19.23
2022-09-16T11:33:40.663Z,19.26
2022-09-16T11:36:21.962Z,18.96
2022-09-16T11:38:55.199Z,18.88
2022-09-16T11:41:29.818Z,18.81
2022-09-16T11:44:22.414Z,18.83
2022-09-16T11:47:05.184Z,18.60
2022-09-16T11:50:03.373Z,18.32
2022-09-16T11:52:52.041Z,18.14
2022-09-16T11:55:31.767Z,18.75
2022-09-16T11:58:17.762Z,19.10
2022-09-16T12:00:46.010Z,19.19
2022-09-16T12:03:37.761Z,18.82
2022-09-16T12:06:11.706Z,18.86
2022-09-16T12:09:03.760Z,18.05
2022-09-16T12:11:39.549Z,17.43
2022-09-16T12:14:28.475Z,15.82
2022-09-16T12:17:01.675Z,15.26
2022-09-16T12:19:33.903Z,15.10
2022-09-16T12:22:21.784Z,15.39
2022-09-16T12:25:07.249Z,15.33
2022-09-16T12:28:10.501Z,15.07
2022-09-16T12:30:42.190Z,15.01
2022-09-16T12:33:26.036Z,15.07
2022-09-16T12:35:57.164Z,15.08
2022-09-16T12:38:23.960Z,15.52
2022-09-16T12:41:19.529Z,15.68
2022-09-16T12:44:02.198Z,16.03
2022-09-16T12:47:00.924Z,16.60
2022-09-16T12:49:33.209Z,17.18
2022-09-16T12:52:19.520Z,17.44
2022-09-16T12:55:08.099Z,17.76
2022-09-16T12:57:37.753Z,17.69
2022-09-16T13:00:10.335Z,17.81
2022-09-16T13:02:41.577Z,18.11
2022-09-16T13:05:17.527Z,18.04
2022-09-16T13:07:50.421Z,18.22
2022-09-16T13:10:46.743Z,18.54
2022-09-16T13:13:29.844Z,18.63
2022-09-16T13:15:58.582Z,18.34
2022-09-16T13:18:38.460Z,18.72
2022-09-16T13:21:16.315Z,19.04
2022-09-16T13:23:50.832Z,19.13
2022-09-16T13:26:17.279Z,18.68
2022-09-16T13:28:46.181Z,18.59
2022-09-16T13:31:12.806Z,18.51
2022-09-16T13:33:47.648Z,18.05
2022-09-16T13:36:31.742Z,17.96
2022-09-16T13:39:03.657Z,17.75
2022-09-16T13:41:35.964Z,18.00
2022-09-16T13:44:24.241Z,18.12
2022-09-16T13:46:50.781Z,18.52
2022-09-16T13:49:25.865Z,18.21
2022-09-16T13:51:52.735Z,17.59
2022-09-16T13:54:27.969Z,17.59
2022-09-16T13:57:28.923Z,17.58
2022-09-16T14:00:02.197Z,17.31
2022-09-16T14:02:39.656Z,17.77
2022-09-16T14:05:33.347Z,18.32
2022-09-16T14:08:09.681Z,17.99
2022-09-16T14:11:03.865Z,18.12
2022-09-16T14:13:49.616Z,18.06
2022-09-16T14:16:21.596Z,17.90
2022-09-16T14:19:07.968Z,17.41
2022-09-16T14:21:34.663Z,17.63
2022-09-16T14:24:17.287Z,17.49
2022-09-16T14:26:57.265Z,17.77
2022-09-16T14:29:25.056Z,17.87
2022-09-16T14:31:54.011Z,18.02
2022-09-16T14:34:46.779Z,18.54
2022-09-16T14:37:17.024Z,18.54
2022-09-16T14:39:43.909Z,18.55
2022-09-16T14:42:16.571Z,18.71
2022-09-16T14:44:47.381Z,18.39
2022-09-16T14:47:47.245Z,18.18
2022-09-16T14:50:24.048Z,16.97
2022-09-16T14:52:54.980Z,15.89
2022-09-16T14:55:23.535Z,15.15
2022-09-16T14:57:50.382Z,15.16
2022-09-16T15:00:19.176Z,15.06
2022-09-16T15:03:04.718Z,14.78
2022-09-16T15:05:34.259Z,14.92
2022-09-16T15:08:19.448Z,14.75
2022-09-16T15:10:55.453Z,14.59
2022-09-16T15:13:26.411Z,14.80
2022-09-16T15:15:55.964Z,14.75
2022-09-16T15:18:22.309Z,14.80
2022-09-16T15:21:00.838Z,14.89
2022-09-16T15:23:28.964Z,14.82
2022-09-16T15:26:11.613Z,15.00
2022-09-16T15:28:38.200Z,15.33
2022-09-16T15:31:05.448Z,15.64
2022-09-16T15:33:42.240Z,15.69
2022-09-16T15:36:33.008Z,15.81
2022-09-16T15:38:59.531Z,15.92
2022-09-16T15:41:26.045Z,16.03
2022-09-16T15:43:52.818Z,15.61
2022-09-16T15:46:22.545Z,15.73
2022-09-16T15:48:55.529Z,15.75
2022-09-16T15:51:24.690Z,15.75
2022-09-16T15:54:17.102Z,15.39
2022-09-16T15:57:02.049Z,15.13
2022-09-16T15:59:37.688Z,15.62
2022-09-16T16:02:22.745Z,15.57
2022-09-16T16:04:50.721Z,15.55
2022-09-16T16:07:44.866Z,15.46
2022-09-16T16:10:15.160Z,15.60
2022-09-16T16:12:41.607Z,15.74
2022-09-16T16:15:08.529Z,15.82
2022-09-16T16:17:34.995Z,15.87
2022-09-16T16:20:02.216Z,15.86
2022-09-16T16:22:29.043Z,15.99
2022-09-16T16:24:55.568Z,15.68
2022-09-16T16:27:21.993Z,15.80
2022-09-16T16:29:48.416Z,15.58
2022-09-16T16:32:16.460Z,15.45
2022-09-16T16:34:45.264Z,15.58
2022-09-16T16:37:33.806Z,15.66
2022-09-16T16:40:00.609Z,15.67
2022-09-16T16:42:28.706Z,15.75
2022-09-16T16:44:56.453Z,15.75
2022-09-16T16:47:23.892Z,15.72
2022-09-16T16:49:51.691Z,15.89
2022-09-16T16:52:18.164Z,15.80
2022-09-16T16:54:45.711Z,15.80
2022-09-16T16:57:12.386Z,15.90
2022-09-16T16:59:38.910Z,15.90
2022-09-16T17:02:06.076Z,15.88
2022-09-16T17:04:32.525Z,15.96
2022-09-16T17:07:24.237Z,16.12
2022-09-16T17:09:45.391Z,16.04
2022-09-16T17:12:12.881Z,15.74
2022-09-16T17:14:39.364Z,15.80
2022-09-16T17:17:05.888Z,15.40
2022-09-16T17:19:32.702Z,15.36
2022-09-16T17:21:59.147Z,15.50
2022-09-16T17:24:25.708Z,15.60
2022-09-16T17:26:52.383Z,15.48
2022-09-16T17:29:18.858Z,15.36
2022-09-16T17:31:45.448Z,15.46
2022-09-16T17:34:14.386Z,15.34
2022-09-16T17:36:45.100Z,15.43
2022-09-16T17:39:14.983Z,15.62
2022-09-16T17:41:45.750Z,15.39
2022-09-16T17:44:13.613Z,15.59
2022-09-16T17:46:41.555Z,15.34
2022-09-16T17:49:13.602Z,15.22
2022-09-16T17:51:40.178Z,15.20
2022-09-16T17:54:08.616Z,15.43
2022-09-16T17:56:35.506Z,15.47
2022-09-16T17:59:02.195Z,15.47
2022-09-16T18:01:30.573Z,15.64
2022-09-16T18:03:57.728Z,15.64
2022-09-16T18:06:27.917Z,15.66
2022-09-16T18:08:55.097Z,15.51
2022-09-16T18:11:22.186Z,15.57
2022-09-16T18:13:55.088Z,15.49
2022-09-16T18:16:22.304Z,15.22
2022-09-16T18:18:54.328Z,15.20
2022-09-16T18:21:21.759Z,15.28
2022-09-16T18:23:51.428Z,14.95
2022-09-16T18:26:18.862Z,14.99
2022-09-16T18:29:08.650Z,14.89
2022-09-16T18:31:34.827Z,14.75
2022-09-16T18:34:01.392Z,14.88
2022-09-16T18:36:29.947Z,14.81
2022-09-16T18:38:58.220Z,14.81
2022-09-16T18:41:27.894Z,14.63
2022-09-16T18:43:55.490Z,14.75
2022-09-16T18:46:26.727Z,14.79
2022-09-16T18:48:53.949Z,14.60
2022-09-16T18:51:22.627Z,14.43
2022-09-16T18:53:51.346Z,14.70
2022-09-16T18:56:19.650Z,14.64
2022-09-16T18:59:03.719Z,14.63
2022-09-16T19:01:35.102Z,14.64
2022-09-16T19:04:04.747Z,14.72
2022-09-16T19:06:34.152Z,14.48
2022-09-16T19:09:01.602Z,14.69
2022-09-16T19:11:28.459Z,14.54
2022-09-16T19:13:55.722Z,14.46
2022-09-16T19:16:22.565Z,14.46
2022-09-16T19:18:53.364Z,14.10
2022-09-16T19:21:21.724Z,14.26
2022-09-16T19:23:57.291Z,13.76
2022-09-16T19:26:25.400Z,13.77
2022-09-16T19:28:52.122Z,13.96
2022-09-16T19:31:19.113Z,13.97
2022-09-16T19:33:45.811Z,13.73
2022-09-16T19:36:19.005Z,13.63
2022-09-16T19:38:47.657Z,13.77
2022-09-16T19:41:14.824Z,13.70
2022-09-16T19:43:42.127Z,13.69
2022-09-16T19:46:10.286Z,13.86
2022-09-16T19:48:38.709Z,13.51
2022-09-16T19:51:07.010Z,13.80
2022-09-16T19:53:35.152Z,13.95
2022-09-16T19:56:13.927Z,13.78
2022-09-16T19:58:40.979Z,13.96
2022-09-16T20:01:08.550Z,13.85
2022-09-16T20:03:39.525Z,13.72
2022-09-16T20:06:13.058Z,13.62
2022-09-16T20:08:41.601Z,13.83
2022-09-16T20:11:09.657Z,13.80
2022-09-16T20:13:36.402Z,13.81
2022-09-16T20:16:05.483Z,13.77
2022-09-16T20:18:33.104Z,13.72
2022-09-16T20:21:04.404Z,13.56
2022-09-16T20:23:31.279Z,13.52
2022-09-16T20:25:59.308Z,13.42
2022-09-16T20:28:33.008Z,13.51
2022-09-16T20:30:59.743Z,13.46
2022-09-16T20:33:31.272Z,13.60
2022-09-16T20:36:07.778Z,13.20
2022-09-16T20:38:36.613Z,13.43
2022-09-16T20:41:15.883Z,13.53
2022-09-16T20:43:42.957Z,13.38
2022-09-16T20:46:12.244Z,13.49
2022-09-16T20:48:39.796Z,13.25
2022-09-16T20:51:08.933Z,13.37
2022-09-16T20:53:36.637Z,13.34
2022-09-16T20:56:06.145Z,13.17
2022-09-16T20:58:36.290Z,13.11
2022-09-16T21:01:07.723Z,13.11
2022-09-16T21:03:34.993Z,13.04
2022-09-16T21:06:06.265Z,12.88
2022-09-16T21:08:34.291Z,13.09
2022-09-16T21:11:06.544Z,12.86
2022-09-16T21:13:33.564Z,13.23
2022-09-16T21:16:00.744Z,13.00
2022-09-16T21:18:27.938Z,12.80
2022-09-16T21:21:07.533Z,12.96
2022-09-16T21:23:34.612Z,12.97
2022-09-16T21:26:04.986Z,13.12
2022-09-16T21:28:33.185Z,12.94
2022-09-16T21:31:05.193Z,13.00
2022-09-16T21:33:33.802Z,13.00
2022-09-16T21:36:00.192Z,12.79
2022-09-16T21:38:28.091Z,12.99
2022-09-16T21:40:56.156Z,13.03
2022-09-16T21:43:24.326Z,12.99
2022-09-16T21:45:50.778Z,12.93
2022-09-16T21:48:19.450Z,12.98
2022-09-16T21:50:47.748Z,12.76
2022-09-16T21:53:14.988Z,12.91
2022-09-16T21:55:41.878Z,12.70
2022-09-16T21:58:08.798Z,12.78
2022-09-16T22:00:37.893Z,12.78
2022-09-16T22:03:05.696Z,12.73
2022-09-16T22:05:33.080Z,12.76
2022-09-16T22:08:01.059Z,12.86
2022-09-16T22:10:29.269Z,12.93
2022-09-16T22:12:56.046Z,12.81
2022-09-16T22:15:24.145Z,12.84
2022-09-16T22:17:54.060Z,12.76
2022-09-16T22:20:23.972Z,12.92
2022-09-16T22:22:50.540Z,12.95
2022-09-16T22:25:17.011Z,12.78
2022-09-16T22:27:43.455Z,12.93
2022-09-16T22:30:11.127Z,12.70
2022-09-16T22:32:40.909Z,12.64
2022-09-16T22:35:08.614Z,12.65
2022-09-16T22:37:35.008Z,12.72
2022-09-16T22:40:02.012Z,12.66
2022-09-16T22:42:28.586Z,12.66
2022-09-16T22:44:55.124Z,12.74
2022-09-16T22:47:21.536Z,12.55
2022-09-16T22:49:47.943Z,12.74
2022-09-16T22:52:14.349Z,12.47
2022-09-16T22:54:40.995Z,12.75
2022-09-16T22:57:07.583Z,12.72
2022-09-16T22:59:34.373Z,12.50
2022-09-16T23:02:00.820Z,12.80
2022-09-16T23:04:27.485Z,12.63
2022-09-16T23:06:54.009Z,12.51
2022-09-16T23:09:20.523Z,12.61
2022-09-16T23:11:46.936Z,12.47
2022-09-16T23:14:15.414Z,12.57
2022-09-16T23:16:42.021Z,12.63
2022-09-16T23:19:11.380Z,12.71
2022-09-16T23:21:38.786Z,12.63
2022-09-16T23:24:06.840Z,12.63
2022-09-16T23:26:35.851Z,12.63
2022-09-16T23:29:04.644Z,12.47
2022-09-16T23:31:35.672Z,12.66
2022-09-16T23:34:07.534Z,12.82
2022-09-16T23:36:37.521Z,12.91
2022-09-16T23:39:06.051Z,12.83
2022-09-16T23:41:32.732Z,12.66
2022-09-16T23:43:59.278Z,12.63
2022-09-16T23:46:29.238Z,12.52
2022-09-16T23:48:55.744Z,12.38
2022-09-16T23:51:27.985Z,12.55
2022-09-16T23:53:55.895Z,12.75
2022-09-16T23:56:22.360Z,12.85
2022-09-16T23:58:50.881Z,12.68
